Time;durP1;ratioP1;P1;durP2;ratioP2;P2;SDS_P1;SDS_P2;PMS_P1;PMS_P2;Temp;Humidity;BMP_temperature;BMP_pressure;BME280_temperature;BME280_humidity;BME280_pressure;Samples;Min_cycle;Max_cycle;Signal;HPM_P1;HPM_P2
2024/01/15 15:47:46;;;;;;;30.20;11.35;;;1.00;99.90;;;;;;5126117;27;20200;-53
2024/01/15 15:50:11;;;;;;;22.00;9.43;;;0.90;99.90;;;;;;5129070;28;20134;-53
2024/01/15 15:52:37;;;;;;;28.95;11.45;;;1.00;99.90;;;;;;5125647;28;20027;-54
2024/01/15 15:55:03;;;;;;;22.60;10.52;;;0.90;99.90;;;;;;5125459;28;20443;-50
2024/01/15 15:57:29;;;;;;;25.88;10.70;;;0.90;99.90;;;;;;5124783;28;20081;-49
2024/01/15 15:59:55;;;;;;;26.38;11.13;;;0.90;99.90;;;;;;5125440;28;20470;-48
2024/01/15 16:02:21;;;;;;;21.45;9.07;;;0.90;99.90;;;;;;5125167;28;20019;-54
2024/01/15 16:04:47;;;;;;;31.33;12.02;;;1.00;99.90;;;;;;5124905;28;20448;-49
2024/01/15 16:07:14;;;;;;;27.90;9.75;;;1.00;99.90;;;;;;5124963;28;20061;-53
2024/01/15 16:09:39;;;;;;;;;;;1.00;99.90;;;;;;5125197;28;20038;-52
2024/01/15 16:12:06;;;;;;;25.63;10.60;;;1.00;99.90;;;;;;5124912;28;20404;-51
2024/01/15 16:14:31;;;;;;;18.30;8.27;;;0.90;99.90;;;;;;5125280;28;20319;-49
2024/01/15 16:16:57;;;;;;;18.95;8.68;;;1.00;99.90;;;;;;5124867;28;20023;-50
2024/01/15 16:19:26;;;;;;;20.83;8.77;;;1.00;99.90;;;;;;5124594;28;20485;-52
2024/01/15 16:21:52;;;;;;;18.42;8.07;;;1.00;99.90;;;;;;5124605;28;20024;-54
2024/01/15 16:24:20;;;;;;;19.38;7.80;;;1.10;99.90;;;;;;5128587;28;20023;-51
2024/01/15 16:26:46;;;;;;;21.65;8.70;;;1.10;99.90;;;;;;5124694;28;20043;-53
2024/01/15 16:29:11;;;;;;;23.00;9.48;;;1.00;99.90;;;;;;5106150;28;20031;-50
2024/01/15 16:31:40;;;;;;;41.80;13.82;;;1.10;99.90;;;;;;5124211;28;20054;-51
2024/01/15 16:34:06;;;;;;;38.33;14.70;;;1.00;99.90;;;;;;5124488;28;20016;-54
2024/01/15 16:36:32;;;;;;;33.38;13.18;;;1.00;99.90;;;;;;5123863;27;20045;-52
2024/01/15 16:38:58;;;;;;;30.37;11.90;;;1.00;99.90;;;;;;5124171;28;20140;-51
2024/01/15 16:41:23;;;;;;;47.63;17.38;;;1.00;99.90;;;;;;5123525;28;20756;-50
2024/01/15 16:43:50;;;;;;;37.38;13.50;;;1.00;99.90;;;;;;5124034;28;20103;-50
2024/01/15 16:46:16;;;;;;;50.25;17.13;;;1.00;99.90;;;;;;5136393;27;20068;-51
2024/01/15 16:48:41;;;;;;;37.50;14.40;;;1.00;99.90;;;;;;5138654;27;20023;-52
2024/01/15 16:51:07;;;;;;;38.50;15.25;;;1.00;99.90;;;;;;5119776;27;20023;-52
2024/01/15 16:53:33;;;;;;;28.67;12.32;;;1.00;99.90;;;;;;5119061;27;20124;-49
2024/01/15 16:55:58;;;;;;;26.42;11.27;;;1.00;99.90;;;;;;5137769;27;20184;-53
2024/01/15 16:58:24;;;;;;;34.97;15.23;;;1.00;99.90;;;;;;5128453;27;20078;-53
2024/01/15 17:00:59;;;;;;;28.73;11.32;;;1.00;99.90;;;;;;5123121;27;20023;-49
2024/01/15 17:03:24;;;;;;;28.50;10.68;;;1.00;99.90;;;;;;5112513;27;20505;-53
2024/01/15 17:05:50;;;;;;;24.70;10.95;;;1.00;99.90;;;;;;5109585;28;20035;-52
2024/01/15 17:08:16;;;;;;;32.83;12.43;;;0.90;99.90;;;;;;5109965;28;20157;-55
2024/01/15 17:10:41;;;;;;;25.42;10.30;;;1.00;99.90;;;;;;5110560;28;20108;-53
2024/01/15 17:13:08;;;;;;;23.58;9.70;;;0.90;99.90;;;;;;5109446;28;20122;-52
2024/01/15 17:15:34;;;;;;;;;;;1.00;99.90;;;;;;5091281;28;20031;-53
2024/01/15 17:18:00;;;;;;;25.17;10.68;;;1.00;99.90;;;;;;5115026;27;20377;-54
2024/01/15 17:20:27;;;;;;;22.67;9.68;;;1.00;99.90;;;;;;5114445;27;20374;-49
2024/01/15 17:22:53;;;;;;;20.05;8.60;;;0.90;99.90;;;;;;5116018;27;20031;-50
2024/01/15 17:25:20;;;;;;;21.38;9.10;;;0.90;99.90;;;;;;5115355;27;20019;-52
2024/01/15 17:27:45;;;;;;;19.08;8.88;;;0.90;99.90;;;;;;5109163;28;21342;-50
2024/01/15 17:30:11;;;;;;;21.00;8.65;;;0.90;99.90;;;;;;5109332;28;20028;-53
2024/01/15 17:32:37;;;;;;;18.95;7.97;;;0.70;99.90;;;;;;5109899;28;20031;-53
2024/01/15 17:35:03;;;;;;;23.70;8.27;;;0.70;99.90;;;;;;5109886;28;20382;-52
2024/01/15 17:37:29;;;;;;;21.95;8.80;;;0.70;99.90;;;;;;5115807;27;20039;-50
2024/01/15 17:39:55;;;;;;;22.17;9.57;;;0.70;99.90;;;;;;5113399;27;20027;-49
2024/01/15 17:42:20;;;;;;;25.83;9.98;;;0.70;99.90;;;;;;5117402;27;20011;-51
2024/01/15 17:44:47;;;;;;;23.15;10.75;;;0.60;99.90;;;;;;5112857;27;20526;-51
2024/01/15 17:47:13;;;;;;;21.58;8.57;;;0.60;99.90;;;;;;5103080;27;20043;-53
2024/01/15 17:49:38;;;;;;;25.77;10.10;;;0.70;99.90;;;;;;5099797;28;20620;-53
2024/01/15 17:52:05;;;;;;;25.67;9.95;;;0.70;99.90;;;;;;5103821;28;20035;-52
2024/01/15 17:54:31;;;;;;;20.13;8.77;;;0.70;99.90;;;;;;5107617;28;20023;-50
2024/01/15 17:56:57;;;;;;;27.80;10.65;;;0.70;99.90;;;;;;5101248;28;20158;-49
2024/01/15 17:59:23;;;;;;;27.75;9.05;;;0.70;99.90;;;;;;5083191;28;20100;-51
2024/01/15 18:01:51;;;;;;;22.65;9.82;;;0.80;99.90;;;;;;5091936;28;20487;-51
2024/01/15 18:04:19;;;;;;;19.85;9.90;;;0.80;99.90;;;;;;5092367;28;20028;-52
2024/01/15 18:06:47;;;;;;;24.52;10.07;;;0.80;99.90;;;;;;5092166;28;20044;-49
2024/01/15 18:09:13;;;;;;;22.15;9.93;;;0.70;99.90;;;;;;5090193;28;20058;-55
2024/01/15 18:11:39;;;;;;;23.23;10.60;;;0.70;99.90;;;;;;5087529;28;20084;-50
2024/01/15 18:14:05;;;;;;;26.90;12.27;;;0.70;99.90;;;;;;5088432;28;20433;-51
2024/01/15 18:16:30;;;;;;;26.58;10.52;;;0.70;99.90;;;;;;5089072;28;20495;-49
2024/01/15 18:18:56;;;;;;;30.63;12.38;;;0.70;99.90;;;;;;5089131;28;20028;-50
2024/01/15 18:21:23;;;;;;;28.83;11.45;;;0.70;99.90;;;;;;5089064;28;20089;-48
2024/01/15 18:23:49;;;;;;;27.67;11.10;;;0.70;99.90;;;;;;5089083;28;20027;-53
2024/01/15 18:26:15;;;;;;;30.02;12.50;;;0.70;99.90;;;;;;5089467;28;20046;-51
2024/01/15 18:28:41;;;;;;;28.90;12.20;;;0.70;99.90;;;;;;5088953;28;20035;-53
2024/01/15 18:31:07;;;;;;;27.52;12.13;;;0.70;99.90;;;;;;5094978;28;20036;-52
2024/01/15 18:33:36;;;;;;;27.48;12.25;;;0.70;99.90;;;;;;5109120;28;20034;-53
2024/01/15 18:36:09;;;;;;;28.50;12.38;;;0.70;99.90;;;;;;5106369;28;20616;-52
2024/01/15 18:38:35;;;;;;;24.35;11.10;;;0.70;99.90;;;;;;5088610;28;20036;-51
2024/01/15 18:41:03;;;;;;;32.20;13.75;;;0.60;99.90;;;;;;5088075;28;20526;-51
2024/01/15 18:43:30;;;;;;;22.67;10.00;;;0.60;99.90;;;;;;5089802;28;20049;-53
2024/01/15 18:45:56;;;;;;;27.60;12.23;;;0.60;99.90;;;;;;5098645;28;21125;-50
2024/01/15 18:48:21;;;;;;;20.70;9.07;;;0.60;99.90;;;;;;5106974;28;20479;-53
2024/01/15 18:50:51;;;;;;;27.92;10.95;;;0.60;99.90;;;;;;5106957;28;20511;-53
2024/01/15 18:53:20;;;;;;;28.77;12.27;;;0.60;99.90;;;;;;5105886;28;20027;-55
2024/01/15 18:55:46;;;;;;;22.10;9.68;;;0.50;99.90;;;;;;5103558;28;20019;-50
2024/01/15 18:58:12;;;;;;;21.25;9.40;;;0.60;99.90;;;;;;5104452;28;20030;-52
2024/01/15 19:00:37;;;;;;;30.15;11.93;;;0.50;99.90;;;;;;5104528;28;20024;-50
2024/01/15 19:03:03;;;;;;;20.58;9.10;;;0.50;99.90;;;;;;5107221;28;20050;-52
2024/01/15 19:05:30;;;;;;;19.83;8.63;;;0.50;99.90;;;;;;5105867;28;20096;-52
2024/01/15 19:07:56;;;;;;;25.67;9.65;;;0.50;99.90;;;;;;5106321;28;20073;-51
2024/01/15 19:10:22;;;;;;;31.10;12.18;;;0.50;99.90;;;;;;5106839;28;20039;-52
2024/01/15 19:12:48;;;;;;;25.60;9.50;;;0.40;99.90;;;;;;5106536;28;20051;-50
2024/01/15 19:15:14;;;;;;;25.13;10.30;;;0.40;99.90;;;;;;5106955;28;20110;-53
2024/01/15 19:17:39;;;;;;;28.95;10.35;;;0.40;99.90;;;;;;5106693;28;20115;-48
2024/01/15 19:20:07;;;;;;;24.63;10.50;;;0.40;99.90;;;;;;5107344;28;20394;-51
2024/01/15 19:22:34;;;;;;;24.77;9.85;;;0.40;99.90;;;;;;5107208;28;20078;-49
2024/01/15 19:25:00;;;;;;;22.48;9.57;;;0.40;99.90;;;;;;5107908;28;20027;-52
2024/01/15 19:27:26;;;;;;;25.67;10.48;;;0.40;99.90;;;;;;5107146;28;20066;-50
2024/01/15 19:29:52;;;;;;;21.00;8.93;;;0.30;99.90;;;;;;5107641;28;20038;-51
2024/01/15 19:32:18;;;;;;;21.73;9.73;;;0.40;99.90;;;;;;5106187;28;20024;-50
2024/01/15 19:34:44;;;;;;;28.35;11.25;;;0.40;99.90;;;;;;5105698;28;20031;-52
2024/01/15 19:37:10;;;;;;;22.38;9.55;;;0.40;99.90;;;;;;5099550;28;20032;-54
2024/01/15 19:39:35;;;;;;;18.98;8.70;;;0.30;99.90;;;;;;5085556;28;20020;-55
2024/01/15 19:42:01;;;;;;;19.38;8.20;;;0.30;99.90;;;;;;5086022;28;20036;-52
2024/01/15 19:44:27;;;;;;;19.75;8.35;;;0.30;99.90;;;;;;5086252;28;20099;-54
2024/01/15 19:46:53;;;;;;;24.67;9.05;;;0.20;80.20;;;;;;5086161;28;20056;-51
2024/01/15 19:49:19;;;;;;;28.23;10.73;;;0.10;1.00;;;;;;5087062;28;20115;-50
2024/01/15 19:51:46;;;;;;;21.77;9.02;;;0.00;99.90;;;;;;5086350;28;20043;-51
2024/01/15 19:54:13;;;;;;;;;;;0.00;1.00;;;;;;5087493;28;20075;-49
2024/01/15 19:56:39;;;;;;;31.92;13.93;;;0.00;39.70;;;;;;5087119;28;19911;-48
2024/01/15 19:59:08;;;;;;;32.50;11.93;;;0.10;96.60;;;;;;5102456;28;20028;-53
2024/01/15 20:01:34;;;;;;;34.35;12.27;;;0.10;99.90;;;;;;5106807;28;20395;-50
2024/01/15 20:03:59;;;;;;;35.33;13.43;;;0.10;99.90;;;;;;5107354;28;20020;-53
2024/01/15 20:06:25;;;;;;;35.13;12.55;;;0.20;99.90;;;;;;5107216;28;20039;-50
2024/01/15 20:08:52;;;;;;;33.17;13.60;;;0.10;99.90;;;;;;5107046;28;20023;-51
2024/01/15 20:11:18;;;;;;;71.05;26.48;;;0.10;99.90;;;;;;5107166;28;20484;-50
2024/01/15 20:13:44;;;;;;;30.27;13.20;;;0.10;99.90;;;;;;5106908;28;20102;-54
2024/01/15 20:16:12;;;;;;;28.15;11.32;;;0.10;1.00;;;;;;5107290;28;20030;-49
2024/01/15 20:18:39;;;;;;;29.60;12.65;;;0.00;1.00;;;;;;5106944;28;20030;-51
2024/01/15 20:21:04;;;;;;;32.90;13.35;;;0.10;57.10;;;;;;5107010;28;20451;-49
2024/01/15 20:23:37;;;;;;;39.88;14.55;;;0.10;99.90;;;;;;5106548;28;20041;-53
2024/01/15 20:26:04;;;;;;;32.65;12.65;;;0.20;99.90;;;;;;5107393;28;20208;-51
2024/01/15 20:28:30;;;;;;;31.50;11.98;;;0.20;99.90;;;;;;5106724;28;20033;-51
2024/01/15 20:30:56;;;;;;;27.75;9.95;;;0.20;99.90;;;;;;5106593;28;20102;-51
2024/01/15 20:33:22;;;;;;;25.73;10.75;;;0.20;99.90;;;;;;5108051;28;20355;-52
2024/01/15 20:35:48;;;;;;;26.05;10.23;;;0.20;99.90;;;;;;5111124;28;20016;-50
2024/01/15 20:38:14;;;;;;;26.33;10.85;;;0.30;99.90;;;;;;5110960;28;20028;-50
2024/01/15 20:40:39;;;;;;;24.88;10.80;;;0.30;99.90;;;;;;5109761;28;20422;-52
2024/01/15 20:43:05;;;;;;;27.73;11.30;;;0.30;99.90;;;;;;5110498;28;20405;-50
2024/01/15 20:45:31;;;;;;;22.40;9.80;;;0.30;99.90;;;;;;5110435;28;20031;-51
2024/01/15 20:47:58;;;;;;;18.52;8.85;;;0.30;99.90;;;;;;5110689;28;20028;-52
2024/01/15 20:50:24;;;;;;;22.10;10.00;;;0.30;99.90;;;;;;5109725;28;20024;-52
2024/01/15 20:52:50;;;;;;;21.05;9.02;;;0.30;99.90;;;;;;5109571;28;20046;-50
2024/01/15 20:55:16;;;;;;;25.30;10.43;;;0.30;99.90;;;;;;5109248;28;20019;-52
2024/01/15 20:57:42;;;;;;;22.00;8.75;;;0.30;99.90;;;;;;5109703;28;20035;-52
2024/01/15 21:00:08;;;;;;;22.33;9.57;;;0.30;99.90;;;;;;5092041;28;20031;-49
2024/01/15 21:02:37;;;;;;;24.15;8.98;;;0.40;99.90;;;;;;5110024;28;20028;-48
2024/01/15 21:05:04;;;;;;;28.42;11.27;;;0.40;99.90;;;;;;5109988;28;20028;-51
2024/01/15 21:07:29;;;;;;;;;;;0.30;99.90;;;;;;5110716;28;20182;-53
2024/01/15 21:09:56;;;;;;;21.52;10.32;;;0.30;99.90;;;;;;5110160;28;20445;-50
2024/01/15 21:12:22;;;;;;;25.40;9.48;;;0.30;99.90;;;;;;5110175;28;20362;-51
2024/01/15 21:14:48;;;;;;;27.00;10.03;;;0.30;99.90;;;;;;5110201;28;20019;-49
2024/01/15 21:17:14;;;;;;;23.38;9.25;;;0.30;99.90;;;;;;5109837;28;20469;-53
2024/01/15 21:19:39;;;;;;;25.98;10.85;;;0.30;99.90;;;;;;5109638;28;20557;-50
2024/01/15 21:22:05;;;;;;;30.60;11.68;;;0.30;99.90;;;;;;5109782;28;20034;-52
2024/01/15 21:24:31;;;;;;;29.70;11.68;;;0.30;99.90;;;;;;5109783;28;20429;-51
2024/01/15 21:26:58;;;;;;;31.92;11.93;;;0.30;99.90;;;;;;5109685;28;20031;-49
2024/01/15 21:29:24;;;;;;;27.08;11.32;;;0.20;99.90;;;;;;5109187;28;20502;-51
2024/01/15 21:31:50;;;;;;;29.85;11.13;;;0.30;99.90;;;;;;5109956;28;20105;-50
2024/01/15 21:34:18;;;;;;;26.00;11.18;;;0.20;99.90;;;;;;5109550;28;20382;-51
2024/01/15 21:36:44;;;;;;;30.17;11.32;;;0.20;99.90;;;;;;5109524;28;20109;-51
2024/01/15 21:39:15;;;;;;;34.22;11.57;;;0.30;99.90;;;;;;5109536;28;20432;-58
2024/01/15 21:41:44;;;;;;;28.02;11.73;;;0.30;99.90;;;;;;5109324;28;20032;-49
2024/01/15 21:44:10;;;;;;;25.73;9.98;;;0.20;99.90;;;;;;5093456;28;20032;-51
2024/01/15 21:46:37;;;;;;;29.83;11.65;;;0.20;99.90;;;;;;5088562;28;20097;-50
2024/01/15 21:49:05;;;;;;;26.70;11.33;;;0.20;99.90;;;;;;5089300;28;20024;-48
2024/01/15 21:51:31;;;;;;;26.95;11.13;;;0.20;99.90;;;;;;5088659;28;20300;-51
2024/01/15 21:53:58;;;;;;;30.30;13.23;;;0.20;99.90;;;;;;5088953;28;20032;-52
2024/01/15 21:56:23;;;;;;;29.95;12.75;;;0.20;99.90;;;;;;5089111;28;20103;-51
2024/01/15 21:58:49;;;;;;;31.60;14.43;;;0.20;99.90;;;;;;5107102;28;20063;-53
2024/01/15 22:01:15;;;;;;;43.05;15.48;;;0.20;99.90;;;;;;5108833;28;20580;-51
2024/01/15 22:03:41;;;;;;;36.78;14.40;;;0.20;99.90;;;;;;5106527;28;20023;-51
2024/01/15 22:06:08;;;;;;;37.47;14.20;;;0.10;99.90;;;;;;5109566;28;20061;-49
2024/01/15 22:08:35;;;;;;;37.92;14.43;;;0.10;99.90;;;;;;5109272;28;20032;-51
2024/01/15 22:11:01;;;;;;;33.08;13.70;;;0.10;99.90;;;;;;5090959;28;20020;-50
2024/01/15 22:13:27;;;;;;;34.33;12.55;;;0.00;93.80;;;;;;5109325;28;20053;-48
2024/01/15 22:15:53;;;;;;;35.17;13.33;;;0.00;97.70;;;;;;5109349;28;20385;-51
2024/01/15 22:18:19;;;;;;;38.92;14.30;;;0.00;79.50;;;;;;5109017;28;20084;-51
2024/01/15 22:20:44;;;;;;;38.83;14.82;;;0.00;90.40;;;;;;5109501;28;20027;-49
2024/01/15 22:23:10;;;;;;;38.22;14.18;;;0.00;82.50;;;;;;5109683;28;20497;-52
2024/01/15 22:25:36;;;;;;;31.95;14.13;;;0.00;92.70;;;;;;5107971;28;20467;-51
2024/01/15 22:28:03;;;;;;;34.85;15.10;;;0.00;99.90;;;;;;5108277;28;20153;-55
2024/01/15 22:30:29;;;;;;;27.00;12.52;;;0.00;99.90;;;;;;5108148;28;20039;-53
2024/01/15 22:32:55;;;;;;;26.05;11.20;;;0.10;99.90;;;;;;5108301;28;20019;-49
2024/01/15 22:35:21;;;;;;;28.25;11.77;;;0.00;99.90;;;;;;5108145;28;20405;-50
2024/01/15 22:37:47;;;;;;;25.17;10.40;;;0.00;99.90;;;;;;5107393;28;20110;-50
2024/01/15 22:40:15;;;;;;;27.65;10.85;;;0.00;99.90;;;;;;5109211;28;20031;-52
2024/01/15 22:42:41;;;;;;;32.63;11.82;;;0.00;99.90;;;;;;5116433;27;20038;-51
2024/01/15 22:45:07;;;;;;;29.15;11.52;;;0.10;99.90;;;;;;5118169;27;20019;-49
2024/01/15 22:47:33;;;;;;;22.97;9.50;;;0.10;99.90;;;;;;5112260;27;20096;-50
2024/01/15 22:49:58;;;;;;;27.73;10.85;;;0.10;99.90;;;;;;5107975;28;20058;-53
2024/01/15 22:52:24;;;;;;;21.55;9.73;;;0.10;99.90;;;;;;5105703;28;20101;-51
2024/01/15 22:54:55;;;;;;;28.13;10.48;;;0.00;99.90;;;;;;5107659;28;20015;-50
2024/01/15 22:57:23;;;;;;;21.58;8.70;;;0.00;1.00;;;;;;5122637;27;20023;-49
2024/01/15 22:59:49;;;;;;;27.92;9.70;;;0.00;99.90;;;;;;5107493;27;20112;-50
2024/01/15 23:02:15;;;;;;;19.15;8.68;;;0.00;1.00;;;;;;5107489;27;20493;-53
2024/01/15 23:04:41;;;;;;;22.80;10.27;;;-0.10;99.90;;;;;;5106554;27;20019;-52
2024/01/15 23:07:07;;;;;;;23.58;8.93;;;0.00;1.00;;;;;;5125338;27;20390;-54
2024/01/15 23:09:33;;;;;;;26.23;10.18;;;0.00;99.90;;;;;;5106510;27;20034;-53
2024/01/15 23:11:59;;;;;;;27.40;10.60;;;0.00;99.90;;;;;;5122483;27;20135;-51
